Time;durP1;ratioP1;P1;durP2;ratioP2;P2;SDS_P1;SDS_P2;PMS_P1;PMS_P2;Temp;Humidity;BMP_temperature;BMP_pressure;BME280_temperature;BME280_humidity;BME280_pressure;Samples;Min_cycle;Max_cycle;Signal;HPM_P1;HPM_P2
2022/04/03 00:00:19;;;;;;;7.55;1.50;;;-0.10;99.90;;;;;;5058132;28;20021;-60
2022/04/03 00:02:45;;;;;;;16.55;2.40;;;-0.10;99.90;;;;;;5052546;28;20040;-59
2022/04/03 00:05:11;;;;;;;5.80;1.83;;;-0.10;99.90;;;;;;5054420;28;20694;-59
2022/04/03 00:07:37;;;;;;;3.72;1.73;;;-0.10;99.90;;;;;;5058489;28;20024;-59
2022/04/03 00:10:03;;;;;;;2.42;1.40;;;0.00;99.90;;;;;;5043839;28;20044;-59
2022/04/03 00:12:29;;;;;;;4.78;2.10;;;0.00;99.90;;;;;;5058072;28;20040;-59
2022/04/03 00:14:54;;;;;;;4.57;1.70;;;0.00;99.90;;;;;;5061441;28;20024;-60
2022/04/03 00:17:21;;;;;;;3.92;2.20;;;0.10;99.90;;;;;;5035571;28;20048;-60
2022/04/03 00:19:47;;;;;;;4.97;2.30;;;0.10;99.90;;;;;;5056023;28;20020;-59
2022/04/03 00:22:13;;;;;;;6.32;1.92;;;0.10;99.90;;;;;;5054407;28;20130;-60
2022/04/03 00:24:39;;;;;;;8.20;1.80;;;0.20;99.90;;;;;;5062876;28;20028;-60
2022/04/03 00:27:05;;;;;;;4.20;1.38;;;0.10;99.90;;;;;;5057477;28;20025;-59
2022/04/03 00:29:31;;;;;;;3.58;1.80;;;0.10;99.90;;;;;;5060311;28;20044;-60
2022/04/03 00:31:56;;;;;;;7.78;2.00;;;0.00;99.90;;;;;;5057768;28;20432;-60
2022/04/03 00:34:22;;;;;;;6.35;1.70;;;0.00;99.90;;;;;;5059389;28;20539;-60
2022/04/03 00:36:48;;;;;;;4.85;2.03;;;0.00;99.90;;;;;;5062042;28;20027;-60
2022/04/03 00:39:14;;;;;;;6.38;2.00;;;0.00;99.90;;;;;;5052725;28;20049;-59
2022/04/03 00:41:41;;;;;;;4.43;1.92;;;0.00;99.90;;;;;;5040113;28;20032;-59
2022/04/03 00:44:07;;;;;;;8.48;2.35;;;-0.10;99.90;;;;;;5055519;28;20032;-60
2022/04/03 00:46:34;;;;;;;3.47;1.63;;;-0.20;99.90;;;;;;5055002;28;20166;-60
2022/04/03 00:49:01;;;;;;;3.55;1.77;;;-0.10;99.90;;;;;;5053559;28;20036;-59
2022/04/03 00:51:28;;;;;;;3.97;1.45;;;-0.10;99.90;;;;;;5060520;28;20025;-59
2022/04/03 00:53:54;;;;;;;3.30;2.13;;;-0.10;99.90;;;;;;5061788;28;20453;-59
2022/04/03 00:56:20;;;;;;;3.65;1.77;;;0.00;99.90;;;;;;5058101;28;20097;-59
2022/04/03 00:58:47;;;;;;;4.30;2.10;;;0.00;99.90;;;;;;5045026;28;20405;-60
2022/04/03 01:01:13;;;;;;;4.88;2.45;;;-0.10;99.90;;;;;;5055657;28;20020;-60
2022/04/03 01:03:39;;;;;;;5.93;2.05;;;0.00;99.90;;;;;;5060405;28;20370;-60
2022/04/03 01:06:06;;;;;;;4.45;1.85;;;0.00;99.90;;;;;;5061971;28;20089;-59
2022/04/03 01:08:32;;;;;;;5.13;2.47;;;0.00;99.90;;;;;;5059445;28;20476;-60
2022/04/03 01:10:58;;;;;;;3.03;1.40;;;0.00;99.90;;;;;;5054324;28;20059;-60
2022/04/03 01:13:25;;;;;;;4.00;1.75;;;0.00;99.90;;;;;;5053413;28;20099;-60
2022/04/03 01:16:00;;;;;;;4.32;1.58;;;-0.10;99.90;;;;;;5063392;28;20036;-59
2022/04/03 01:18:27;;;;;;;3.47;1.30;;;-0.10;99.90;;;;;;5057425;28;20025;-60
2022/04/03 01:20:54;;;;;;;2.70;1.63;;;-0.10;99.90;;;;;;5057164;28;20040;-59
2022/04/03 01:23:25;;;;;;;3.03;1.88;;;0.00;99.90;;;;;;5041542;28;20021;-59
2022/04/03 01:25:50;;;;;;;4.13;1.58;;;-0.10;99.90;;;;;;5050182;28;20110;-59
2022/04/03 01:28:16;;;;;;;6.10;2.55;;;0.00;99.90;;;;;;5056674;28;20049;-60
2022/04/03 01:30:42;;;;;;;2.83;1.35;;;0.00;99.90;;;;;;5055321;28;20013;-59
2022/04/03 01:33:07;;;;;;;4.90;2.03;;;0.00;99.90;;;;;;5050850;28;20029;-59
2022/04/03 01:35:33;;;;;;;4.82;2.03;;;0.00;99.90;;;;;;5057063;28;20065;-60
2022/04/03 01:37:58;;;;;;;2.90;1.58;;;0.00;99.90;;;;;;5060930;28;20036;-59
2022/04/03 01:40:24;;;;;;;2.80;1.35;;;-0.10;99.90;;;;;;5053900;28;20050;-59
2022/04/03 01:42:50;;;;;;;8.82;1.98;;;-0.10;99.90;;;;;;5055065;28;20039;-60
2022/04/03 01:45:16;;;;;;;4.40;2.15;;;-0.20;99.90;;;;;;5057506;28;20495;-60
2022/04/03 01:47:41;;;;;;;7.95;1.98;;;-0.20;99.90;;;;;;5057404;28;20033;-59
2022/04/03 01:50:08;;;;;;;6.80;1.85;;;-0.20;99.90;;;;;;5052331;28;20029;-60
2022/04/03 01:52:34;;;;;;;3.20;1.58;;;-0.10;99.90;;;;;;5057177;28;20028;-60
2022/04/03 01:54:59;;;;;;;6.28;1.77;;;-0.20;99.90;;;;;;5054452;28;20660;-60
2022/04/03 01:57:26;;;;;;;3.78;1.83;;;-0.20;99.90;;;;;;5064686;28;20024;-60
2022/04/03 01:59:52;;;;;;;8.02;1.95;;;-0.20;99.90;;;;;;5064364;28;20031;-60
2022/04/03 02:02:17;;;;;;;5.60;2.30;;;-0.20;99.90;;;;;;5057314;28;20400;-60
2022/04/03 02:04:45;;;;;;;2.53;1.30;;;-0.20;99.90;;;;;;5059880;28;20029;-60
2022/04/03 02:07:11;;;;;;;5.03;2.13;;;-0.40;99.90;;;;;;5058262;28;20051;-59
2022/04/03 02:09:37;;;;;;;2.15;1.30;;;-0.40;99.90;;;;;;5043496;28;20170;-60
2022/04/03 02:12:05;;;;;;;6.68;2.35;;;-0.40;99.90;;;;;;5053349;28;20052;-59
2022/04/03 02:14:31;;;;;;;4.85;2.08;;;-0.40;99.90;;;;;;5054355;28;20075;-60
2022/04/03 02:16:57;;;;;;;5.28;2.20;;;-0.60;99.90;;;;;;5057397;28;20831;-59
2022/04/03 02:19:24;;;;;;;10.85;2.47;;;-0.70;99.90;;;;;;5032086;28;20049;-59
2022/04/03 02:21:50;;;;;;;2.72;1.55;;;-0.80;99.90;;;;;;5055726;28;20108;-59
2022/04/03 02:24:16;;;;;;;4.38;1.77;;;-0.80;99.90;;;;;;5051512;28;20136;-59
2022/04/03 02:26:41;;;;;;;3.10;1.80;;;-0.70;99.90;;;;;;5042317;28;20064;-61
2022/04/03 02:29:07;;;;;;;3.88;1.70;;;-0.70;99.90;;;;;;5053931;28;20098;-60
2022/04/03 02:31:33;;;;;;;2.45;1.42;;;-0.70;99.90;;;;;;5051064;28;20035;-60
2022/04/03 02:33:59;;;;;;;2.70;1.48;;;-0.80;99.90;;;;;;5057379;28;20368;-60
2022/04/03 02:36:25;;;;;;;6.28;2.33;;;-0.90;99.90;;;;;;5052784;28;20021;-60
2022/04/03 02:38:51;;;;;;;1.80;1.20;;;-0.90;99.90;;;;;;5058277;28;20831;-60
2022/04/03 02:41:17;;;;;;;3.50;2.13;;;-0.80;99.90;;;;;;5056020;28;20047;-60
2022/04/03 02:43:43;;;;;;;3.92;1.27;;;-0.80;99.90;;;;;;5050481;28;20008;-59
2022/04/03 02:46:08;;;;;;;4.65;1.77;;;-0.80;99.90;;;;;;5056871;28;20177;-60
2022/04/03 02:48:34;;;;;;;3.10;1.48;;;-0.80;99.90;;;;;;5055682;28;20025;-59
2022/04/03 02:51:01;;;;;;;2.72;1.52;;;-0.90;99.90;;;;;;5054528;28;20017;-59
2022/04/03 02:53:27;;;;;;;6.03;2.40;;;-1.00;99.90;;;;;;5052561;28;20036;-60
2022/04/03 02:55:52;;;;;;;3.92;1.88;;;-1.00;99.90;;;;;;5055640;28;20143;-60
2022/04/03 02:58:18;;;;;;;3.38;1.98;;;-1.10;99.90;;;;;;5052683;28;20393;-59
2022/04/03 03:00:43;;;;;;;20.58;2.70;;;-1.10;99.90;;;;;;5035480;28;20373;-60
2022/04/03 03:03:09;;;;;;;2.28;1.27;;;-1.10;99.90;;;;;;5050126;28;20053;-60
2022/04/03 03:05:35;;;;;;;4.68;1.75;;;-1.10;99.90;;;;;;5057652;28;20033;-59
2022/04/03 03:08:01;;;;;;;3.65;1.77;;;-1.00;99.90;;;;;;5055042;28;20753;-60
2022/04/03 03:10:27;;;;;;;3.28;1.50;;;-1.00;99.90;;;;;;5052769;28;20094;-60
2022/04/03 03:12:53;;;;;;;3.83;2.35;;;-1.00;99.90;;;;;;5037479;28;20037;-59
2022/04/03 03:15:21;;;;;;;3.40;1.55;;;-1.00;99.90;;;;;;5050064;28;20020;-60
2022/04/03 03:17:47;;;;;;;3.80;1.88;;;-1.10;99.90;;;;;;5056519;28;20081;-60
2022/04/03 03:20:13;;;;;;;2.05;1.40;;;-0.90;99.90;;;;;;5057448;28;20108;-59
2022/04/03 03:22:39;;;;;;;4.20;1.75;;;-0.70;99.90;;;;;;5051138;28;20129;-62
2022/04/03 03:25:06;;;;;;;3.40;1.73;;;-0.60;99.90;;;;;;5053618;28;20016;-62
2022/04/03 03:27:36;;;;;;;2.75;1.35;;;-0.70;99.90;;;;;;5053125;28;20614;-61
2022/04/03 03:30:03;;;;;;;3.17;1.63;;;-0.90;99.90;;;;;;5054603;28;20438;-59
2022/04/03 03:32:29;;;;;;;3.30;1.67;;;-1.00;99.90;;;;;;5048251;28;20270;-61
2022/04/03 03:34:54;;;;;;;2.22;1.50;;;-0.80;99.90;;;;;;5055034;28;20527;-61
2022/04/03 03:37:20;;;;;;;5.97;2.05;;;-0.90;99.90;;;;;;5050652;28;20020;-61
2022/04/03 03:39:47;;;;;;;4.90;2.13;;;-1.00;99.90;;;;;;5054999;28;20048;-61
2022/04/03 03:42:13;;;;;;;5.25;2.28;;;-1.10;99.90;;;;;;5053588;28;20024;-60
2022/04/03 03:44:39;;;;;;;3.67;1.75;;;-1.20;99.90;;;;;;5056408;28;20111;-59
2022/04/03 03:47:05;;;;;;;5.35;2.00;;;-1.00;99.90;;;;;;5043511;28;20134;-62
2022/04/03 03:49:31;;;;;;;2.97;1.75;;;-0.70;99.90;;;;;;5054854;28;20031;-61
2022/04/03 03:51:57;;;;;;;2.25;1.40;;;-0.90;99.90;;;;;;5029941;28;20108;-61
2022/04/03 03:54:22;;;;;;;4.03;2.03;;;-0.80;99.90;;;;;;5058100;28;20142;-62
2022/04/03 03:56:48;;;;;;;4.55;1.98;;;-0.60;99.90;;;;;;5056749;28;20032;-62
2022/04/03 03:59:14;;;;;;;3.47;1.27;;;-0.60;99.90;;;;;;5060935;28;20417;-62
2022/04/03 04:01:40;;;;;;;4.50;2.15;;;-0.70;99.90;;;;;;5054828;28;20021;-59
2022/04/03 04:04:06;;;;;;;3.53;1.88;;;-0.70;99.90;;;;;;5056382;28;20044;-59
2022/04/03 04:06:32;;;;;;;4.78;2.22;;;-0.80;99.90;;;;;;5060665;28;20380;-60
2022/04/03 04:08:58;;;;;;;2.22;1.27;;;-0.70;99.90;;;;;;5035176;28;20059;-59
2022/04/03 04:11:24;;;;;;;4.00;2.15;;;-0.70;99.90;;;;;;5056976;28;20024;-59
2022/04/03 04:13:50;;;;;;;5.97;2.15;;;-0.60;99.90;;;;;;5053566;28;20025;-59
2022/04/03 04:16:15;;;;;;;8.10;2.40;;;-0.60;99.90;;;;;;5057075;28;20111;-59
2022/04/03 04:18:42;;;;;;;6.55;2.58;;;-0.70;99.90;;;;;;5054633;28;20037;-60
2022/04/03 04:21:08;;;;;;;6.10;2.15;;;-0.70;99.90;;;;;;5045122;28;20029;-61
2022/04/03 04:23:33;;;;;;;5.25;1.85;;;-0.50;99.90;;;;;;5056698;28;20127;-61
2022/04/03 04:25:59;;;;;;;3.53;1.85;;;-0.60;99.90;;;;;;5056061;28;20150;-59
2022/04/03 04:28:25;;;;;;;4.50;1.75;;;-0.70;99.90;;;;;;5054382;28;20021;-60
2022/04/03 04:30:51;;;;;;;3.40;1.65;;;-0.60;99.90;;;;;;5054812;28;20134;-61
2022/04/03 04:33:17;;;;;;;5.78;2.83;;;-0.40;99.90;;;;;;5057087;28;20021;-62
2022/04/03 04:35:42;;;;;;;9.20;1.75;;;-0.60;99.90;;;;;;5055031;28;20036;-59
2022/04/03 04:38:08;;;;;;;2.65;1.77;;;-0.70;99.90;;;;;;5057991;28;20037;-59
2022/04/03 04:40:33;;;;;;;2.58;1.52;;;-0.60;99.90;;;;;;5060322;28;20035;-60
2022/04/03 04:42:59;;;;;;;3.05;1.67;;;-0.70;99.90;;;;;;5055427;28;20488;-60
2022/04/03 04:45:28;;;;;;;2.83;1.60;;;-0.80;99.90;;;;;;5058364;28;20024;-59
2022/04/03 04:48:00;;;;;;;3.38;1.50;;;-0.60;99.90;;;;;;5059380;28;20036;-59
2022/04/03 04:50:27;;;;;;;3.70;1.60;;;-0.60;99.90;;;;;;5057021;28;20029;-61
2022/04/03 04:52:53;;;;;;;2.85;1.85;;;-0.50;99.90;;;;;;5057016;28;20020;-61
2022/04/03 04:55:19;;;;;;;2.63;1.65;;;-0.70;99.90;;;;;;5050494;28;20017;-61
2022/04/03 04:57:53;;;;;;;3.05;1.75;;;-0.80;99.90;;;;;;5055574;28;20021;-59
2022/04/03 05:00:20;;;;;;;7.45;2.20;;;-1.00;99.90;;;;;;5039981;28;20033;-59
2022/04/03 05:02:46;;;;;;;3.88;1.90;;;-1.00;99.90;;;;;;5056483;28;20032;-59
2022/04/03 05:05:21;;;;;;;4.10;2.17;;;-1.10;99.90;;;;;;5057627;28;20024;-60
2022/04/03 05:07:53;;;;;;;7.45;2.53;;;-1.30;99.90;;;;;;5058948;28;20059;-60
2022/04/03 05:10:19;;;;;;;6.32;2.70;;;-1.30;99.90;;;;;;5051548;28;20722;-59
2022/04/03 05:12:45;;;;;;;3.97;1.92;;;-1.40;99.90;;;;;;5056657;28;20432;-61
2022/04/03 05:15:11;;;;;;;3.17;1.67;;;-1.10;99.90;;;;;;5052915;28;20025;-61
2022/04/03 05:17:42;;;;;;;4.53;2.22;;;-1.30;99.90;;;;;;5057412;28;20514;-59
2022/04/03 05:20:08;;;;;;;;;;;-1.50;99.90;;;;;;5045765;28;20060;-59
2022/04/03 05:22:34;;;;;;;5.95;1.83;;;-1.50;99.90;;;;;;5057888;28;19962;-61
2022/04/03 05:25:01;;;;;;;7.60;1.65;;;-1.20;99.90;;;;;;5057398;28;20024;-61
2022/04/03 05:27:28;;;;;;;14.68;2.33;;;-1.40;99.90;;;;;;5052826;28;20024;-61
2022/04/03 05:29:55;;;;;;;4.60;1.58;;;-1.40;99.90;;;;;;5056411;28;20483;-62
2022/04/03 05:32:28;;;;;;;13.85;2.08;;;-1.40;99.90;;;;;;5035485;28;20024;-61
2022/04/03 05:34:55;;;;;;;3.45;1.88;;;-1.40;99.90;;;;;;5054949;28;20032;-61
2022/04/03 05:37:21;;;;;;;5.15;2.17;;;-1.40;99.90;;;;;;5053052;28;20373;-61
2022/04/03 05:39:47;;;;;;;4.32;2.22;;;-1.20;99.90;;;;;;5054963;28;20388;-61
2022/04/03 05:42:13;;;;;;;4.93;1.92;;;-1.20;99.90;;;;;;5059795;28;20050;-62
2022/04/03 05:44:39;;;;;;;4.18;2.22;;;-1.40;99.90;;;;;;5053611;28;20049;-62
2022/04/03 05:47:05;;;;;;;3.60;1.67;;;-1.30;99.90;;;;;;5062672;28;20567;-62
2022/04/03 05:49:31;;;;;;;5.53;1.73;;;-1.20;99.90;;;;;;5053176;28;20032;-61
2022/04/03 05:51:56;;;;;;;3.45;1.95;;;-1.10;99.90;;;;;;5054846;28;20028;-61
2022/04/03 05:54:22;;;;;;;4.95;2.40;;;-1.10;99.90;;;;;;5056834;28;20229;-61
2022/04/03 05:56:48;;;;;;;5.85;2.22;;;-1.10;99.90;;;;;;5055846;28;20036;-62
2022/04/03 05:59:14;;;;;;;5.05;2.72;;;-1.10;99.90;;;;;;5038649;28;20029;-61
2022/04/03 06:01:40;;;;;;;3.60;1.67;;;-1.30;99.90;;;;;;5054239;28;20156;-61
2022/04/03 06:04:05;;;;;;;4.60;2.38;;;-1.40;99.90;;;;;;5037537;28;20519;-61
2022/04/03 06:06:31;;;;;;;5.55;1.85;;;-1.20;99.90;;;;;;5038841;28;20028;-61
2022/04/03 06:08:57;;;;;;;3.70;2.08;;;-0.90;99.90;;;;;;5055100;28;20728;-62
2022/04/03 06:11:22;;;;;;;4.10;2.28;;;-0.90;99.90;;;;;;5038465;28;20028;-61
2022/04/03 06:13:48;;;;;;;3.72;1.63;;;-0.80;99.90;;;;;;5052422;28;20118;-62
2022/04/03 06:16:13;;;;;;;17.77;3.08;;;-0.80;99.90;;;;;;5056787;28;20024;-61
2022/04/03 06:18:39;;;;;;;4.20;1.80;;;-0.70;99.90;;;;;;5052834;28;20373;-62
2022/04/03 06:21:05;;;;;;;5.00;2.17;;;-0.60;99.90;;;;;;5054273;28;20113;-62
2022/04/03 06:23:31;;;;;;;2.72;1.42;;;-0.50;99.90;;;;;;5055061;28;20033;-62
2022/04/03 06:25:57;;;;;;;3.38;1.92;;;-0.30;99.90;;;;;;5052916;28;20033;-60
2022/04/03 06:28:24;;;;;;;3.05;1.73;;;-0.20;99.90;;;;;;5053467;28;20512;-62
2022/04/03 06:30:50;;;;;;;4.53;2.33;;;0.00;99.90;;;;;;5052529;28;20027;-60
2022/04/03 06:33:17;;;;;;;5.40;2.15;;;-0.10;99.90;;;;;;5037128;28;20408;-60
2022/04/03 06:35:44;;;;;;;4.15;2.22;;;0.10;99.90;;;;;;5053091;28;20393;-62
2022/04/03 06:38:10;;;;;;;3.97;1.85;;;0.20;99.90;;;;;;5053725;28;20044;-62
2022/04/03 06:40:37;;;;;;;3.35;1.60;;;0.30;99.90;;;;;;5054206;28;20041;-62
2022/04/03 06:43:03;;;;;;;3.35;1.63;;;0.40;99.90;;;;;;5057275;28;20075;-61
2022/04/03 06:45:29;;;;;;;1.90;1.10;;;0.50;99.90;;;;;;5055873;28;20036;-61
2022/04/03 06:48:00;;;;;;;1.52;1.17;;;0.60;99.90;;;;;;5053369;28;20107;-61
2022/04/03 06:50:25;;;;;;;2.75;1.42;;;0.60;99.90;;;;;;5046943;28;20017;-61
2022/04/03 06:52:51;;;;;;;4.70;2.05;;;0.70;99.90;;;;;;5047648;28;20569;-61
2022/04/03 06:55:16;;;;;;;5.25;2.28;;;0.80;99.90;;;;;;5046338;28;20029;-62
2022/04/03 06:57:42;;;;;;;3.85;1.40;;;0.80;99.90;;;;;;5045532;28;20032;-61
2022/04/03 07:00:09;;;;;;;2.90;1.90;;;0.90;99.90;;;;;;5050652;28;20103;-60
2022/04/03 07:02:35;;;;;;;4.55;1.48;;;1.00;99.90;;;;;;5045247;28;20025;-61
2022/04/03 07:05:02;;;;;;;2.42;1.30;;;1.00;99.90;;;;;;5047977;28;20040;-61
2022/04/03 07:07:28;;;;;;;1.90;1.35;;;1.20;99.90;;;;;;5049867;28;20080;-61
2022/04/03 07:09:54;;;;;;;1.98;1.20;;;1.20;99.90;;;;;;5037219;28;20492;-61
2022/04/03 07:12:20;;;;;;;5.35;2.15;;;1.30;99.90;;;;;;5052473;28;20031;-60
2022/04/03 07:14:46;;;;;;;4.82;1.48;;;1.40;99.90;;;;;;5054591;28;20381;-61
2022/04/03 07:17:12;;;;;;;5.70;2.22;;;1.40;99.90;;;;;;5055968;28;20029;-60
2022/04/03 07:19:38;;;;;;;6.40;3.55;;;1.50;99.90;;;;;;5041650;28;20031;-61
2022/04/03 07:22:03;;;;;;;4.03;1.90;;;1.60;99.90;;;;;;5056385;28;20048;-61
2022/04/03 07:24:29;;;;;;;3.33;1.27;;;1.60;99.90;;;;;;5054607;28;20395;-61
2022/04/03 07:26:55;;;;;;;8.93;3.10;;;1.80;99.90;;;;;;5034191;28;20036;-61
2022/04/03 07:29:22;;;;;;;1.65;1.20;;;1.80;99.90;;;;;;5045936;28;20028;-61
2022/04/03 07:31:49;;;;;;;3.40;1.50;;;2.00;99.90;;;;;;5047064;28;20432;-61
2022/04/03 07:34:15;;;;;;;5.90;1.98;;;2.00;99.90;;;;;;5045033;28;20100;-61
2022/04/03 07:36:41;;;;;;;4.35;1.60;;;2.00;99.90;;;;;;5045933;28;20108;-61
2022/04/03 07:39:09;;;;;;;3.25;1.67;;;2.10;99.90;;;;;;5045900;28;20080;-60
2022/04/03 07:41:34;;;;;;;3.22;1.75;;;2.20;99.90;;;;;;5075238;28;20066;-61
2022/04/03 07:44:00;;;;;;;4.32;2.00;;;2.30;99.90;;;;;;5077322;28;20024;-61
2022/04/03 07:46:26;;;;;;;3.90;1.95;;;2.40;99.90;;;;;;5078358;28;20066;-61
2022/04/03 07:48:51;;;;;;;2.97;1.50;;;2.40;99.90;;;;;;5075670;28;20111;-61
2022/04/03 07:51:17;;;;;;;3.03;1.73;;;2.50;99.90;;;;;;5077107;28;20032;-60
2022/04/03 07:53:42;;;;;;;5.28;1.23;;;2.60;99.90;;;;;;5078542;28;20024;-62
2022/04/03 07:56:08;;;;;;;2.70;1.48;;;2.70;99.90;;;;;;5072266;28;20059;-61
2022/04/03 07:58:37;;;;;;;2.60;1.48;;;2.70;99.90;;;;;;5063589;28;20025;-62
2022/04/03 08:01:03;;;;;;;3.58;1.75;;;2.80;99.90;;;;;;5068798;28;20029;-61
2022/04/03 08:03:29;;;;;;;4.00;1.77;;;2.90;99.90;;;;;;5065144;28;20025;-61
2022/04/03 08:05:55;;;;;;;3.60;1.52;;;3.00;99.90;;;;;;5067825;28;20593;-61
2022/04/03 08:08:21;;;;;;;2.95;1.60;;;3.10;99.90;;;;;;5062909;28;20132;-61
2022/04/03 08:10:47;;;;;;;3.80;1.77;;;3.20;99.90;;;;;;5064928;28;20490;-61
2022/04/03 08:13:14;;;;;;;2.42;1.40;;;3.20;99.90;;;;;;5064074;28;20653;-62
2022/04/03 08:15:40;;;;;;;1.65;0.90;;;3.30;99.90;;;;;;5063977;28;20081;-61
2022/04/03 08:18:07;;;;;;;1.35;1.00;;;3.30;99.90;;;;;;5068804;28;20457;-61
2022/04/03 08:20:33;;;;;;;4.05;1.85;;;3.30;99.90;;;;;;5075410;28;20021;-61
2022/04/03 08:23:03;;;;;;;3.03;1.35;;;3.40;99.90;;;;;;5078201;28;20149;-61
2022/04/03 08:25:29;;;;;;;;;;;3.70;99.90;;;;;;5073276;28;20032;-61
2022/04/03 08:27:56;;;;;;;15.70;7.10;;;4.40;99.90;;;;;;5072257;28;19908;-60
2022/04/03 08:30:27;;;;;;;4.50;1.50;;;5.20;99.90;;;;;;5070321;28;20028;-60
2022/04/03 08:32:53;;;;;;;4.13;1.67;;;6.10;99.90;;;;;;5072169;28;20027;-60
2022/04/03 08:35:20;;;;;;;1.48;1.08;;;6.20;99.70;;;;;;5072483;28;20024;-60
2022/04/03 08:37:46;;;;;;;1.67;0.93;;;6.30;99.90;;;;;;5071282;28;20032;-60
2022/04/03 08:40:13;;;;;;;2.20;1.10;;;6.30;98.80;;;;;;5054844;28;20094;-60
2022/04/03 08:42:41;;;;;;;2.85;1.40;;;7.20;97.70;;;;;;5057580;28;20880;-60
2022/04/03 08:45:11;;;;;;;2.00;1.00;;;7.60;96.50;;;;;;5061310;28;20032;-61
2022/04/03 08:47:52;;;;;;;4.55;0.93;;;7.60;95.40;;;;;;5059019;28;20077;-60
2022/04/03 08:50:20;;;;;;;2.60;1.40;;;7.50;94.60;;;;;;5058717;28;20099;-60
2022/04/03 08:52:48;;;;;;;1.52;0.98;;;7.20;93.60;;;;;;5060907;28;20025;-61
2022/04/03 08:55:15;;;;;;;0.93;0.85;;;6.40;95.60;;;;;;5058940;28;20074;-61
2022/04/03 08:57:41;;;;;;;1.75;1.02;;;5.70;95.40;;;;;;5058114;28;20020;-61
2022/04/03 09:00:08;;;;;;;2.53;1.13;;;5.40;95.80;;;;;;5050399;28;20404;-61
2022/04/03 09:02:33;;;;;;;4.15;1.30;;;5.40;96.10;;;;;;5053175;28;20029;-61
2022/04/03 09:04:59;;;;;;;2.78;1.48;;;6.30;95.50;;;;;;5056810;28;20706;-61
2022/04/03 09:07:25;;;;;;;2.92;1.25;;;6.10;93.90;;;;;;5058411;28;20376;-61
2022/04/03 09:10:07;;;;;;;1.63;1.10;;;5.70;94.40;;;;;;5060942;28;20020;-62
2022/04/03 09:12:32;;;;;;;4.93;1.83;;;5.40;92.90;;;;;;5056446;28;20029;-62
2022/04/03 09:14:58;;;;;;;1.83;0.85;;;5.40;93.50;;;;;;5058035;28;20025;-61
2022/04/03 09:17:42;;;;;;;6.25;1.30;;;6.40;93.30;;;;;;5054416;28;20052;-59
2022/04/03 09:20:17;;;;;;;4.32;1.38;;;7.30;91.40;;;;;;5038930;28;20020;-59
2022/04/03 09:22:44;;;;;;;1.02;0.93;;;8.30;90.20;;;;;;5052849;28;20036;-59
2022/04/03 09:25:13;;;;;;;2.92;1.40;;;9.10;87.60;;;;;;5057199;28;20024;-61
2022/04/03 09:27:49;;;;;;;1.25;0.88;;;8.50;85.40;;;;;;5045678;28;20074;-61
2022/04/03 09:30:17;;;;;;;2.45;1.10;;;8.10;84.50;;;;;;5036269;28;20036;-62
2022/04/03 09:32:57;;;;;;;3.50;1.50;;;7.60;84.50;;;;;;5050167;28;20020;-61
2022/04/03 09:35:26;;;;;;;3.53;1.38;;;7.40;86.80;;;;;;5055204;28;20024;-58
2022/04/03 09:38:08;;;;;;;1.77;0.93;;;8.30;84.90;;;;;;5056391;28;20032;-59
2022/04/03 09:40:36;;;;;;;2.22;1.33;;;8.50;83.40;;;;;;5072885;28;20040;-59
2022/04/03 09:43:21;;;;;;;1.88;0.98;;;9.20;85.30;;;;;;5068534;28;20037;-59
2022/04/03 09:45:55;;;;;;;1.58;1.02;;;9.70;82.50;;;;;;5074599;28;20750;-59
2022/04/03 09:48:28;;;;;;;1.00;0.65;;;9.50;82.80;;;;;;5076552;28;20020;-61
2022/04/03 09:51:04;;;;;;;1.02;0.88;;;8.20;83.50;;;;;;5075122;28;20055;-61
2022/04/03 09:53:48;;;;;;;2.53;1.60;;;7.70;85.10;;;;;;5070736;28;20028;-61
2022/04/03 09:56:21;;;;;;;1.40;1.10;;;8.00;86.00;;;;;;5069758;28;20032;-62
2022/04/03 09:58:50;;;;;;;1.02;0.90;;;8.30;87.70;;;;;;5067333;28;20055;-61
2022/04/03 10:01:46;;;;;;;2.90;1.00;;;7.90;85.90;;;;;;5065958;28;20028;-62
2022/04/03 10:04:14;;;;;;;3.22;1.10;;;7.00;90.00;;;;;;5069145;28;20440;-62
2022/04/03 10:06:41;;;;;;;5.10;1.75;;;7.40;90.50;;;;;;5056798;28;20373;-60
2022/04/03 10:09:11;;;;;;;3.95;1.55;;;6.30;90.20;;;;;;5068272;28;20645;-61
2022/04/03 10:11:40;;;;;;;2.05;1.17;;;6.20;91.30;;;;;;5070040;28;20029;-60
2022/04/03 10:14:06;;;;;;;4.90;1.20;;;6.20;90.70;;;;;;5065237;28;20047;-60
2022/04/03 10:16:32;;;;;;;5.65;1.50;;;6.00;92.50;;;;;;5070444;28;20111;-60
2022/04/03 10:18:58;;;;;;;4.32;1.38;;;5.90;93.00;;;;;;5072751;28;20924;-61
2022/04/03 10:21:40;;;;;;;2.83;1.40;;;5.70;93.70;;;;;;5068124;28;20598;-61
2022/04/03 10:24:18;;;;;;;2.75;1.42;;;5.60;93.90;;;;;;5072029;28;20035;-61
2022/04/03 10:27:02;;;;;;;3.33;1.10;;;5.50;94.60;;;;;;5073702;28;20117;-61
2022/04/03 10:29:32;;;;;;;3.33;1.48;;;5.10;94.10;;;;;;5072553;28;20160;-60
2022/04/03 10:32:03;;;;;;;2.13;1.20;;;5.30;93.90;;;;;;5051030;28;20024;-60
2022/04/03 10:34:29;;;;;;;;;;;5.50;94.50;;;;;;5071413;28;20036;-60
2022/04/03 10:36:55;;;;;;;0.70;0.70;;;6.20;93.90;;;;;;5070370;28;19911;-60
2022/04/03 10:39:26;;;;;;;0.80;0.80;;;6.30;94.00;;;;;;5057266;28;20052;-60
2022/04/03 10:42:20;;;;;;;2.90;1.35;;;6.50;93.60;;;;;;5054330;28;20021;-59
2022/04/03 10:45:11;;;;;;;3.47;1.70;;;6.20;94.00;;;;;;5052788;28;20032;-62
2022/04/03 10:47:37;;;;;;;1.17;0.90;;;5.90;93.40;;;;;;5052362;28;20054;-61
2022/04/03 10:50:04;;;;;;;1.33;0.77;;;5.80;94.50;;;;;;5053150;28;20609;-61
2022/04/03 10:52:39;;;;;;;1.27;1.10;;;5.80;93.90;;;;;;5050280;28;20071;-61
2022/04/03 10:55:28;;;;;;;5.15;1.13;;;5.70;94.50;;;;;;5050307;28;20590;-62
2022/04/03 10:58:03;;;;;;;0.95;0.85;;;5.70;95.50;;;;;;5045089;28;20242;-61
2022/04/03 11:00:32;;;;;;;0.73;0.73;;;5.80;94.20;;;;;;5043951;28;20586;-61
2022/04/03 11:02:58;;;;;;;1.23;0.93;;;6.00;94.00;;;;;;5045478;28;20453;-61
2022/04/03 11:05:26;;;;;;;1.38;0.90;;;6.50;93.70;;;;;;5047286;28;20063;-59
2022/04/03 11:08:02;;;;;;;1.92;1.30;;;8.00;93.00;;;;;;5048961;28;20029;-59
2022/04/03 11:10:48;;;;;;;3.55;1.35;;;9.50;92.10;;;;;;5046030;28;20040;-59
2022/04/03 11:13:18;;;;;;;1.95;1.00;;;11.60;88.20;;;;;;5046018;28;20024;-59
2022/04/03 11:15:53;;;;;;;3.13;1.13;;;12.40;83.60;;;;;;5051590;28;20029;-58
2022/04/03 11:18:29;;;;;;;0.98;0.77;;;11.20;82.60;;;;;;5036554;28;20879;-60
2022/04/03 11:21:23;;;;;;;1.85;1.00;;;11.00;82.60;;;;;;5052856;28;20183;-59
2022/04/03 11:23:58;;;;;;;2.03;1.00;;;12.20;83.40;;;;;;5055873;28;20609;-59
2022/04/03 11:26:23;;;;;;;3.03;1.40;;;12.00;84.90;;;;;;5053209;28;20098;-59
2022/04/03 11:28:49;;;;;;;3.00;1.10;;;12.70;80.10;;;;;;5051582;28;20435;-60
2022/04/03 11:31:15;;;;;;;2.85;1.13;;;13.40;79.40;;;;;;5056409;28;20032;-59
2022/04/03 11:33:41;;;;;;;2.47;1.10;;;12.60;78.30;;;;;;5055095;28;20522;-59
2022/04/03 11:36:18;;;;;;;1.10;0.85;;;12.70;82.70;;;;;;5024711;28;20064;-59
2022/04/03 11:38:49;;;;;;;3.08;0.98;;;13.40;78.40;;;;;;5046315;28;20055;-59
2022/04/03 11:41:25;;;;;;;3.50;0.90;;;11.60;80.10;;;;;;5054299;28;20061;-59
2022/04/03 11:43:59;;;;;;;2.60;1.05;;;12.30;81.20;;;;;;5048966;28;20111;-59
2022/04/03 11:46:25;;;;;;;2.53;0.90;;;13.10;79.40;;;;;;5046662;28;20082;-58
2022/04/03 11:48:50;;;;;;;3.85;0.90;;;13.30;78.00;;;;;;5049350;28;20030;-59
2022/04/03 11:51:19;;;;;;;1.58;0.88;;;12.50;78.50;;;;;;5057191;28;20036;-59
2022/04/03 11:53:49;;;;;;;3.33;1.00;;;12.00;81.10;;;;;;5054163;28;20533;-59
2022/04/03 11:56:16;;;;;;;4.22;1.23;;;11.00;78.40;;;;;;5056810;28;20024;-59
2022/04/03 11:58:53;;;;;;;1.48;0.90;;;9.50;82.00;;;;;;5054910;28;20029;-59
2022/04/03 12:01:34;;;;;;;1.27;0.90;;;9.20;85.90;;;;;;5050262;28;20059;-59
2022/04/03 12:04:06;;;;;;;1.65;1.02;;;11.00;83.20;;;;;;5053565;28;20035;-59
2022/04/03 12:06:32;;;;;;;1.52;0.90;;;12.20;78.40;;;;;;5044320;28;20036;-59
2022/04/03 12:08:58;;;;;;;1.65;0.90;;;13.00;79.40;;;;;;5061816;28;20025;-59
2022/04/03 12:11:30;;;;;;;2.42;0.88;;;12.50;79.00;;;;;;5057165;28;20497;-59
2022/04/03 12:13:57;;;;;;;3.17;1.27;;;12.80;79.70;;;;;;5056187;28;20031;-59
2022/04/03 12:16:33;;;;;;;1.13;0.80;;;13.30;79.60;;;;;;5055320;28;20297;-59
2022/04/03 12:19:15;;;;;;;2.47;1.08;;;13.30;77.90;;;;;;5064075;28;20020;-59
2022/04/03 12:21:49;;;;;;;1.77;0.90;;;13.10;76.70;;;;;;5055340;28;20111;-59
2022/04/03 12:24:26;;;;;;;2.33;1.10;;;11.80;78.00;;;;;;5060984;28;20025;-59
2022/04/03 12:26:54;;;;;;;3.40;1.45;;;12.90;76.40;;;;;;5035535;28;20028;-59
2022/04/03 12:29:22;;;;;;;1.90;1.00;;;13.70;75.70;;;;;;5060993;28;20021;-58
2022/04/03 12:32:01;;;;;;;1.42;0.82;;;14.20;74.10;;;;;;5056575;28;20025;-59
2022/04/03 12:34:29;;;;;;;4.38;1.48;;;13.50;72.30;;;;;;5056381;28;20077;-59
2022/04/03 12:36:56;;;;;;;1.98;1.02;;;15.00;73.00;;;;;;5057534;28;20028;-59
2022/04/03 12:39:31;;;;;;;3.67;1.08;;;14.90;72.50;;;;;;5052696;28;20040;-59
2022/04/03 12:42:17;;;;;;;3.38;1.35;;;14.50;74.10;;;;;;5058515;28;20081;-59
2022/04/03 12:44:59;;;;;;;6.13;1.38;;;14.70;71.70;;;;;;5056637;28;20064;-59
2022/04/03 12:48:01;;;;;;;7.95;1.55;;;12.70;72.70;;;;;;5058833;28;20034;-59
2022/04/03 12:50:34;;;;;;;2.15;1.10;;;11.90;76.30;;;;;;5052710;28;20043;-59
2022/04/03 12:53:06;;;;;;;3.35;1.20;;;11.70;76.10;;;;;;5055886;28;20021;-59
2022/04/03 12:55:34;;;;;;;4.82;1.63;;;11.20;77.10;;;;;;5057422;28;20323;-59
2022/04/03 13:01:07;;;;;;;2.40;1.23;;;9.70;80.80;;;;;;5058508;28;20048;-59